createdAt,value
2022-11-28T00:01:26.911Z,9.18
2022-11-28T00:03:54.282Z,10.52
2022-11-28T00:06:21.788Z,13.45
2022-11-28T00:08:49.497Z,12.00
2022-11-28T00:11:19.602Z,10.02
2022-11-28T00:13:47.516Z,10.60
2022-11-28T00:16:17.395Z,14.27
2022-11-28T00:18:47.963Z,13.65
2022-11-28T00:21:15.876Z,12.23
2022-11-28T00:23:43.719Z,11.90
2022-11-28T00:26:16.223Z,10.45
2022-11-28T00:28:43.525Z,10.43
2022-11-28T00:31:14.646Z,10.38
2022-11-28T00:33:42.346Z,10.33
2022-11-28T00:36:09.940Z,13.80
2022-11-28T00:38:39.451Z,10.63
2022-11-28T00:41:17.459Z,10.00
2022-11-28T00:43:46.239Z,10.05
2022-11-28T00:46:16.308Z,12.02
2022-11-28T00:48:43.945Z,9.98
2022-11-28T00:51:11.266Z,10.10
2022-11-28T00:53:40.572Z,10.43
2022-11-28T00:56:08.436Z,11.02
2022-11-28T00:58:36.203Z,9.57
2022-11-28T01:01:11.323Z,11.27
2022-11-28T01:03:38.911Z,13.23
2022-11-28T01:06:06.377Z,9.73
2022-11-28T01:08:33.626Z,11.98
2022-11-28T01:11:01.360Z,11.93
2022-11-28T01:13:28.938Z,10.23
2022-11-28T01:15:56.471Z,13.45
2022-11-28T01:18:23.907Z,11.05
2022-11-28T01:20:51.496Z,12.43
2022-11-28T01:23:19.392Z,11.15
2022-11-28T01:25:47.213Z,11.02
2022-11-28T01:28:14.575Z,8.60
2022-11-28T01:30:41.960Z,8.98
2022-11-28T01:33:09.304Z,9.73
2022-11-28T01:35:36.683Z,10.25
2022-11-28T01:38:04.056Z,9.13
2022-11-28T01:40:31.506Z,13.95
2022-11-28T01:42:59.266Z,8.73
2022-11-28T01:45:31.001Z,10.05
2022-11-28T01:48:01.257Z,7.60
2022-11-28T01:50:29.427Z,9.23
2022-11-28T01:52:58.157Z,8.95
2022-11-28T01:55:26.855Z,7.95
2022-11-28T01:57:54.861Z,12.30
2022-11-28T02:00:22.760Z,12.23
2022-11-28T02:02:50.986Z,8.63
2022-11-28T02:05:19.320Z,9.95
2022-11-28T02:07:46.906Z,8.88
2022-11-28T02:10:18.339Z,8.38
2022-11-28T02:12:53.754Z,11.15
2022-11-28T02:15:27.543Z,9.02
2022-11-28T02:18:13.485Z,8.43
2022-11-28T02:20:52.753Z,6.75
2022-11-28T02:23:27.640Z,11.30
2022-11-28T02:26:09.814Z,12.07
2022-11-28T02:31:03.970Z,9.02
2022-11-28T02:33:40.234Z,8.48
2022-11-28T02:36:07.569Z,11.73
2022-11-28T02:38:41.156Z,10.77
2022-11-28T02:41:08.220Z,11.43
2022-11-28T02:43:43.545Z,11.65
2022-11-28T02:46:16.024Z,11.18
2022-11-28T02:48:47.057Z,15.63
2022-11-28T02:51:21.708Z,9.18
2022-11-28T02:53:49.803Z,8.80
2022-11-28T02:56:16.868Z,10.95
2022-11-28T02:58:43.948Z,10.05
2022-11-28T03:01:16.392Z,9.70
2022-11-28T03:03:50.315Z,15.18
2022-11-28T03:06:17.824Z,9.32
2022-11-28T03:09:00.800Z,11.32
2022-11-28T03:11:27.803Z,11.02
2022-11-28T03:14:15.114Z,11.35
2022-11-28T03:16:42.514Z,10.52
2022-11-28T03:19:15.439Z,15.23
2022-11-28T03:21:52.407Z,10.75
2022-11-28T03:24:25.081Z,13.32
2022-11-28T03:26:58.086Z,12.23
2022-11-28T03:29:35.573Z,13.98
2022-11-28T03:32:04.883Z,11.65
2022-11-28T03:34:36.594Z,12.32
2022-11-28T03:37:05.463Z,14.95
2022-11-28T03:39:35.157Z,13.48
2022-11-28T03:42:05.754Z,11.80
2022-11-28T03:44:36.633Z,11.00
2022-11-28T03:47:05.160Z,14.27
2022-11-28T03:49:35.196Z,15.50
2022-11-28T03:52:07.169Z,12.80
2022-11-28T03:57:15.642Z,12.00
2022-11-28T03:59:44.995Z,12.70
2022-11-28T04:02:19.434Z,13.70
2022-11-28T04:04:53.537Z,11.00
2022-11-28T04:07:26.714Z,13.07
2022-11-28T04:09:59.827Z,11.90
2022-11-28T04:12:29.770Z,15.30
2022-11-28T04:15:01.489Z,15.23
2022-11-28T04:17:37.586Z,13.50
2022-11-28T04:20:04.746Z,13.88
2022-11-28T04:22:33.884Z,14.57
2022-11-28T04:25:10.353Z,13.45
2022-11-28T04:27:39.414Z,14.30
2022-11-28T04:30:07.831Z,14.70
2022-11-28T04:32:36.905Z,14.70
2022-11-28T04:35:07.451Z,14.27
2022-11-28T04:37:35.976Z,16.00
2022-11-28T04:40:03.804Z,15.80
2022-11-28T04:42:38.174Z,15.38
2022-11-28T04:45:22.507Z,13.82
2022-11-28T04:47:49.682Z,14.93
2022-11-28T04:50:16.932Z,14.02
2022-11-28T04:52:50.052Z,15.95
2022-11-28T04:55:20.588Z,15.63
2022-11-28T04:57:55.718Z,15.13
2022-11-28T05:00:24.286Z,13.82
2022-11-28T05:02:52.280Z,15.13
2022-11-28T05:05:24.829Z,12.10
2022-11-28T05:07:52.572Z,13.93
2022-11-28T05:10:19.974Z,14.20
2022-11-28T05:12:47.175Z,15.38
2022-11-28T05:15:19.001Z,15.80
2022-11-28T05:17:46.992Z,13.38
2022-11-28T05:20:14.463Z,14.57
2022-11-28T05:22:41.587Z,14.48
2022-11-28T05:25:08.868Z,14.82
2022-11-28T05:27:35.970Z,17.35
2022-11-28T05:30:03.585Z,17.00
2022-11-28T05:32:31.320Z,14.65
2022-11-28T05:34:58.594Z,17.75
2022-11-28T05:37:25.823Z,15.73
2022-11-28T05:39:52.908Z,17.30
2022-11-28T05:42:20.035Z,15.65
2022-11-28T05:44:48.015Z,15.68
2022-11-28T05:47:18.242Z,14.60
2022-11-28T05:49:47.130Z,16.55
2022-11-28T05:52:14.196Z,18.17
2022-11-28T05:54:41.459Z,16.15
2022-11-28T05:57:08.575Z,17.13
2022-11-28T05:59:35.772Z,16.08
2022-11-28T06:02:02.914Z,17.45
2022-11-28T06:04:30.133Z,19.75
2022-11-28T06:06:57.198Z,19.90
2022-11-28T06:09:26.040Z,16.95
2022-11-28T06:11:53.440Z,19.20
2022-11-28T06:14:20.573Z,18.75
2022-11-28T06:16:47.665Z,16.63
2022-11-28T06:19:14.854Z,17.80
2022-11-28T06:21:42.032Z,13.60
2022-11-28T06:24:10.754Z,17.23
2022-11-28T06:26:37.920Z,14.55
2022-11-28T06:29:05.375Z,13.93
2022-11-28T06:31:32.584Z,15.95
2022-11-28T06:33:59.681Z,15.45
2022-11-28T06:36:27.193Z,13.10
2022-11-28T06:38:54.398Z,13.20
2022-11-28T06:41:22.783Z,14.73
2022-11-28T06:43:49.999Z,15.00
2022-11-28T06:46:18.910Z,11.60
2022-11-28T06:48:47.149Z,13.00
2022-11-28T06:51:14.676Z,11.68
2022-11-28T06:53:41.887Z,11.57
2022-11-28T06:56:10.700Z,11.85
2022-11-28T06:58:38.161Z,13.07
2022-11-28T07:01:09.397Z,11.90
2022-11-28T07:03:36.754Z,14.05
2022-11-28T07:06:04.836Z,11.15
2022-11-28T07:08:32.401Z,10.85
2022-11-28T07:10:59.805Z,10.63
2022-11-28T07:13:26.879Z,9.80
2022-11-28T07:15:53.964Z,14.23
2022-11-28T07:18:21.016Z,11.35
2022-11-28T07:20:48.070Z,11.43
2022-11-28T07:23:15.220Z,10.73
2022-11-28T07:25:42.580Z,10.88
2022-11-28T07:28:09.741Z,8.65
2022-11-28T07:30:36.817Z,10.68
2022-11-28T07:33:03.905Z,11.18
2022-11-28T07:35:30.982Z,11.48
2022-11-28T07:37:58.062Z,9.15
2022-11-28T07:40:25.133Z,12.35
2022-11-28T07:42:52.175Z,11.07
2022-11-28T07:45:19.264Z,9.70
2022-11-28T07:47:46.351Z,9.27
2022-11-28T07:50:13.569Z,10.32
2022-11-28T07:52:40.733Z,11.15
2022-11-28T07:55:08.110Z,7.13
2022-11-28T07:57:35.282Z,10.45
2022-11-28T08:00:02.505Z,11.27
2022-11-28T08:02:32.382Z,11.00
2022-11-28T08:05:00.011Z,9.13
2022-11-28T08:07:27.285Z,12.23
2022-11-28T08:09:54.489Z,12.23
2022-11-28T08:12:21.624Z,10.93
2022-11-28T08:14:48.716Z,11.02
2022-11-28T08:17:15.809Z,10.25
2022-11-28T08:19:42.916Z,10.43
2022-11-28T08:22:10.005Z,9.27
2022-11-28T08:24:37.197Z,12.57
2022-11-28T08:27:04.408Z,9.18
2022-11-28T08:29:31.613Z,11.18
2022-11-28T08:31:58.741Z,10.20
2022-11-28T08:34:25.793Z,11.55
2022-11-28T08:36:52.871Z,9.27
2022-11-28T08:39:24.429Z,11.07
2022-11-28T08:41:51.916Z,10.90
2022-11-28T08:44:18.989Z,9.07
2022-11-28T08:46:46.189Z,10.00
2022-11-28T08:49:13.311Z,11.05
2022-11-28T08:51:40.418Z,10.13
2022-11-28T08:54:07.704Z,11.00
2022-11-28T08:56:34.839Z,9.90
2022-11-28T08:59:02.007Z,11.80
2022-11-28T09:01:29.266Z,9.60
2022-11-28T09:03:56.912Z,11.10
2022-11-28T09:06:24.838Z,10.98
2022-11-28T09:08:52.485Z,9.63
2022-11-28T09:11:20.336Z,11.55
2022-11-28T09:13:47.581Z,11.43
2022-11-28T09:16:15.172Z,9.05
2022-11-28T09:18:42.505Z,12.10
2022-11-28T09:21:10.712Z,11.75
2022-11-28T09:23:38.267Z,9.25
2022-11-28T09:26:09.296Z,8.10
2022-11-28T09:28:36.619Z,11.37
2022-11-28T09:31:04.722Z,10.15
2022-11-28T09:33:32.221Z,9.85
2022-11-28T09:35:59.387Z,11.77
2022-11-28T09:38:26.723Z,9.63
2022-11-28T09:40:53.982Z,11.45
2022-11-28T09:43:36.295Z,8.98
2022-11-28T09:46:06.750Z,9.23
2022-11-28T09:48:42.722Z,10.07
2022-11-28T09:51:27.963Z,10.25
2022-11-28T09:54:05.111Z,9.65
2022-11-28T09:56:32.579Z,9.82
2022-11-28T09:59:03.137Z,9.98
2022-11-28T10:01:37.779Z,10.23
2022-11-28T10:04:08.961Z,8.73
2022-11-28T10:06:53.650Z,9.15
2022-11-28T10:09:24.113Z,10.95
2022-11-28T10:12:03.413Z,8.93
2022-11-28T10:14:49.013Z,9.07
2022-11-28T10:17:34.992Z,8.57
2022-11-28T10:20:22.619Z,8.60
2022-11-28T10:23:01.249Z,9.27
2022-11-28T10:25:34.820Z,9.18
2022-11-28T10:28:03.891Z,8.30
2022-11-28T10:30:34.042Z,10.05
2022-11-28T10:33:19.725Z,9.13
2022-11-28T10:35:55.898Z,7.82
2022-11-28T10:38:26.206Z,7.95
2022-11-28T10:41:00.268Z,7.68
2022-11-28T10:43:32.396Z,8.05
2022-11-28T10:45:59.641Z,7.93
2022-11-28T10:48:45.356Z,6.75
2022-11-28T10:51:12.585Z,7.20
2022-11-28T10:53:39.690Z,8.10
2022-11-28T10:56:13.907Z,7.75
2022-11-28T10:58:44.214Z,6.28
2022-11-28T11:01:12.456Z,7.15
2022-11-28T11:03:40.049Z,6.72
2022-11-28T11:06:08.075Z,10.50
2022-11-28T11:08:39.039Z,7.75
2022-11-28T11:11:09.808Z,7.47
2022-11-28T11:13:56.188Z,6.40
2022-11-28T11:16:23.891Z,7.32
2022-11-28T11:18:52.471Z,7.45
2022-11-28T11:21:22.523Z,12.55
2022-11-28T11:23:50.468Z,6.70
2022-11-28T11:26:25.615Z,7.85
2022-11-28T11:28:52.823Z,9.23
2022-11-28T11:31:31.635Z,10.38
2022-11-28T11:34:13.212Z,10.02
2022-11-28T11:36:40.369Z,9.48
2022-11-28T11:39:07.488Z,7.53
2022-11-28T11:41:34.720Z,7.95
2022-11-28T11:44:20.622Z,7.88
2022-11-28T11:47:03.411Z,9.85
2022-11-28T11:49:30.477Z,7.50
2022-11-28T11:51:58.765Z,9.50
2022-11-28T11:54:26.113Z,9.95
2022-11-28T11:57:05.748Z,8.63
2022-11-28T11:59:45.161Z,10.20
2022-11-28T12:02:30.834Z,8.55
2022-11-28T12:05:04.273Z,8.27
2022-11-28T12:07:40.078Z,9.23
2022-11-28T12:10:10.854Z,7.43
2022-11-28T12:12:40.468Z,8.52
2022-11-28T12:15:13.712Z,6.78
2022-11-28T12:20:37.407Z,7.28
2022-11-28T12:23:04.865Z,8.73
2022-11-28T12:25:45.962Z,7.35
2022-11-28T12:28:22.166Z,9.02
2022-11-28T12:30:49.530Z,10.27
2022-11-28T12:33:49.322Z,9.85
2022-11-28T12:36:29.612Z,9.07
2022-11-28T12:39:05.329Z,9.52
2022-11-28T12:41:32.924Z,8.25
2022-11-28T12:44:06.290Z,9.10
2022-11-28T12:46:36.701Z,9.52
2022-11-28T12:49:09.303Z,8.65
2022-11-28T12:51:39.469Z,11.00
2022-11-28T12:54:09.656Z,10.57
2022-11-28T12:56:55.769Z,9.43
2022-11-28T12:59:33.437Z,9.20
2022-11-28T13:02:25.764Z,8.85
2022-11-28T13:04:53.144Z,11.63
2022-11-28T13:07:35.596Z,11.63
2022-11-28T13:10:24.162Z,10.27
2022-11-28T13:13:00.449Z,9.45
2022-11-28T13:15:49.550Z,10.40
2022-11-28T13:18:33.848Z,11.15
2022-11-28T13:21:34.596Z,11.23
2022-11-28T13:24:07.168Z,10.27
2022-11-28T13:26:35.199Z,9.90
2022-11-28T13:29:05.271Z,10.05
2022-11-28T13:31:38.643Z,10.75
2022-11-28T13:34:13.190Z,10.68
2022-11-28T13:39:35.747Z,10.27
2022-11-28T13:45:02.045Z,11.48
2022-11-28T13:47:29.299Z,9.70
2022-11-28T13:50:15.753Z,10.43
2022-11-28T13:52:46.016Z,10.45
2022-11-28T13:55:37.979Z,10.90
2022-11-28T13:58:17.037Z,10.30
2022-11-28T14:00:44.771Z,8.93
2022-11-28T14:03:21.347Z,10.00
2022-11-28T14:05:55.033Z,9.10
2022-11-28T14:08:39.386Z,9.88
2022-11-28T14:11:22.731Z,10.93
2022-11-28T14:13:55.381Z,11.18
2022-11-28T14:16:28.539Z,12.32
2022-11-28T14:19:01.844Z,10.55
2022-11-28T14:21:38.151Z,12.10
2022-11-28T14:24:18.394Z,10.55
2022-11-28T14:26:45.811Z,11.95
2022-11-28T14:29:28.075Z,13.35
2022-11-28T14:32:27.964Z,11.57
2022-11-28T14:34:48.396Z,10.18
2022-11-28T14:37:30.553Z,15.63
2022-11-28T14:39:59.595Z,13.75
2022-11-28T14:45:46.961Z,12.18
2022-11-28T14:48:30.271Z,17.65
2022-11-28T14:51:01.744Z,12.75
2022-11-28T14:56:09.653Z,12.82
2022-11-28T14:58:37.014Z,15.07
2022-11-28T15:01:05.917Z,12.40
2022-11-28T15:03:38.983Z,14.30
2022-11-28T15:06:29.299Z,16.95
2022-11-28T15:09:02.501Z,16.40
2022-11-28T15:11:42.599Z,15.57
2022-11-28T15:14:14.956Z,14.05
2022-11-28T15:16:49.680Z,13.25
2022-11-28T15:19:21.130Z,13.90
2022-11-28T15:21:49.584Z,14.43
2022-11-28T15:24:28.236Z,16.00
2022-11-28T15:26:57.820Z,17.88
2022-11-28T15:29:28.948Z,21.17
2022-11-28T15:31:57.355Z,14.45
2022-11-28T15:34:26.669Z,18.20
2022-11-28T15:36:55.204Z,18.52
2022-11-28T15:39:25.792Z,29.83
2022-11-28T15:41:53.484Z,23.90
2022-11-28T15:44:20.967Z,25.40
2022-11-28T15:46:48.435Z,24.00
2022-11-28T15:49:29.118Z,29.50
2022-11-28T15:51:59.764Z,25.00
2022-11-28T15:54:27.122Z,24.15
2022-11-28T15:56:57.854Z,27.33
2022-11-28T15:59:25.064Z,21.45
2022-11-28T16:01:58.953Z,24.70
2022-11-28T16:04:26.955Z,37.33
2022-11-28T16:06:55.510Z,33.58
2022-11-28T16:09:25.713Z,28.67
2022-11-28T16:11:53.905Z,26.63
2022-11-28T16:14:24.772Z,29.75
2022-11-28T16:16:52.107Z,32.45
2022-11-28T16:19:24.850Z,23.38
2022-11-28T16:21:57.320Z,35.25
2022-11-28T16:24:26.617Z,26.30
2022-11-28T16:27:01.056Z,33.75
2022-11-28T16:29:37.463Z,29.58
2022-11-28T16:32:21.707Z,30.95
2022-11-28T16:34:50.993Z,34.17
2022-11-28T16:37:23.084Z,27.73
2022-11-28T16:40:00.246Z,34.28
2022-11-28T16:42:27.519Z,35.00
2022-11-28T16:44:54.762Z,31.90
2022-11-28T16:47:30.218Z,30.45
2022-11-28T16:50:15.792Z,31.10
2022-11-28T16:52:46.445Z,39.65
2022-11-28T16:55:34.773Z,38.85
2022-11-28T16:58:07.994Z,41.25
2022-11-28T17:00:35.491Z,49.50
2022-11-28T17:03:03.412Z,34.72
2022-11-28T17:05:30.588Z,35.95
2022-11-28T17:07:57.952Z,45.63
2022-11-28T17:10:25.604Z,46.33
2022-11-28T17:12:52.855Z,33.50
2022-11-28T17:15:21.830Z,33.50
2022-11-28T17:17:48.997Z,33.20
2022-11-28T17:20:17.753Z,32.72
2022-11-28T17:22:47.596Z,47.80
2022-11-28T17:25:16.305Z,57.70
2022-11-28T17:27:43.489Z,48.80
2022-11-28T17:30:14.214Z,30.17
2022-11-28T17:32:41.345Z,47.92
2022-11-28T17:35:14.159Z,48.67
2022-11-28T17:37:41.220Z,41.90
2022-11-28T17:40:27.269Z,54.45
2022-11-28T17:42:54.444Z,37.15
2022-11-28T17:45:22.865Z,34.22
2022-11-28T17:47:50.014Z,45.08
2022-11-28T17:50:17.773Z,38.65
2022-11-28T17:52:45.052Z,37.75
2022-11-28T17:55:12.161Z,46.10
2022-11-28T17:57:39.364Z,36.92
2022-11-28T18:00:07.179Z,40.03
2022-11-28T18:02:34.473Z,30.25
2022-11-28T18:05:01.816Z,38.28
2022-11-28T18:07:29.972Z,39.28
2022-11-28T18:09:57.228Z,37.67
2022-11-28T18:12:24.506Z,34.25
2022-11-28T18:14:51.594Z,32.75
2022-11-28T18:17:18.807Z,38.30
2022-11-28T18:19:46.324Z,41.92
2022-11-28T18:22:13.680Z,42.55
2022-11-28T18:24:40.961Z,42.00
2022-11-28T18:27:08.250Z,38.53
2022-11-28T18:29:35.492Z,39.13
2022-11-28T18:32:02.732Z,49.00
2022-11-28T18:34:30.485Z,40.72
2022-11-28T18:37:00.737Z,41.95
2022-11-28T18:39:28.246Z,33.55
2022-11-28T18:41:56.370Z,42.03
2022-11-28T18:44:23.620Z,45.72
2022-11-28T18:46:50.743Z,47.13
2022-11-28T18:49:19.600Z,56.10
2022-11-28T18:51:46.993Z,46.03
2022-11-28T18:54:20.557Z,50.72
2022-11-28T18:56:48.174Z,42.78
2022-11-28T18:59:15.623Z,52.33
2022-11-28T19:01:42.962Z,56.63
2022-11-28T19:04:11.569Z,47.53
2022-11-28T19:06:40.153Z,51.22
2022-11-28T19:09:12.071Z,54.08
2022-11-28T19:14:07.866Z,84.10
2022-11-28T19:16:36.833Z,54.53
2022-11-28T19:19:04.918Z,59.03
2022-11-28T19:21:33.405Z,64.10
2022-11-28T19:24:01.115Z,67.50
2022-11-28T19:26:29.658Z,71.93
2022-11-28T19:28:57.440Z,75.78
2022-11-28T19:31:29.292Z,91.60
2022-11-28T19:36:28.685Z,118.90
2022-11-28T19:38:55.857Z,97.57
2022-11-28T19:41:23.791Z,105.95
2022-11-28T19:43:51.626Z,99.10
2022-11-28T19:46:18.937Z,70.78
2022-11-28T19:48:46.368Z,68.10
2022-11-28T19:51:14.325Z,79.47
2022-11-28T19:53:42.471Z,54.70
2022-11-28T19:56:17.740Z,84.00
2022-11-28T19:58:45.456Z,90.90
2022-11-28T20:01:14.271Z,107.43
2022-11-28T20:03:41.874Z,90.40
2022-11-28T20:06:10.060Z,159.90
2022-11-28T20:08:37.819Z,95.70
2022-11-28T20:11:15.411Z,101.05
2022-11-28T20:13:43.127Z,64.40
2022-11-28T20:16:11.615Z,60.67
2022-11-28T20:18:39.672Z,71.15
2022-11-28T20:21:11.153Z,65.90
2022-11-28T20:23:42.676Z,83.13
2022-11-28T20:26:10.561Z,90.90
2022-11-28T20:28:38.646Z,66.65
2022-11-28T20:31:06.678Z,56.70
2022-11-28T20:33:34.046Z,74.03
2022-11-28T20:36:08.172Z,88.65
2022-11-28T20:38:35.221Z,68.68
2022-11-28T20:41:02.957Z,61.15
2022-11-28T20:43:34.152Z,63.53
2022-11-28T20:46:04.405Z,63.05
2022-11-28T20:48:31.615Z,58.20
2022-11-28T20:50:58.726Z,77.00
2022-11-28T20:53:27.060Z,69.65
2022-11-28T20:56:04.676Z,78.75
2022-11-28T20:58:32.265Z,51.33
2022-11-28T21:00:59.832Z,56.60
2022-11-28T21:03:26.956Z,54.80
2022-11-28T21:05:57.946Z,50.47
2022-11-28T21:08:37.357Z,59.15
2022-11-28T21:11:08.605Z,54.72
2022-11-28T21:13:35.828Z,54.38
2022-11-28T21:16:10.442Z,61.53
2022-11-28T21:18:38.183Z,47.55
2022-11-28T21:21:09.286Z,57.70
2022-11-28T21:23:36.492Z,60.37
2022-11-28T21:26:04.823Z,55.10
2022-11-28T21:28:31.962Z,53.58
2022-11-28T21:30:59.054Z,51.83
2022-11-28T21:33:26.175Z,56.97
2022-11-28T21:35:53.353Z,58.72
2022-11-28T21:38:20.617Z,56.42
2022-11-28T21:40:54.298Z,56.53
2022-11-28T21:43:21.508Z,51.92
2022-11-28T21:45:48.752Z,43.28
2022-11-28T21:48:16.952Z,61.50
2022-11-28T21:50:51.161Z,53.25
2022-11-28T21:53:18.860Z,60.72
2022-11-28T21:55:49.356Z,53.35
2022-11-28T21:58:16.467Z,49.33
2022-11-28T22:00:53.675Z,50.30
2022-11-28T22:03:24.814Z,49.42
2022-11-28T22:06:00.853Z,52.67
2022-11-28T22:08:28.177Z,45.10
2022-11-28T22:10:58.031Z,62.42
2022-11-28T22:13:25.202Z,60.05
2022-11-28T22:15:52.713Z,49.67
2022-11-28T22:18:22.886Z,56.92
2022-11-28T22:20:52.839Z,57.95
2022-11-28T22:23:20.410Z,51.55
2022-11-28T22:25:52.772Z,64.47
2022-11-28T22:28:20.795Z,62.25
2022-11-28T22:30:47.961Z,51.63
2022-11-28T22:33:15.835Z,55.33
2022-11-28T22:35:44.843Z,53.95
2022-11-28T22:38:12.668Z,57.58
2022-11-28T22:40:39.821Z,61.00
2022-11-28T22:43:07.360Z,63.10
2022-11-28T22:45:35.281Z,62.28
2022-11-28T22:48:02.456Z,66.70
2022-11-28T22:50:29.625Z,56.75
2022-11-28T22:52:56.870Z,64.65
2022-11-28T22:55:24.123Z,64.68
2022-11-28T22:58:04.728Z,69.05
2022-11-28T23:00:32.163Z,65.38
2022-11-28T23:02:59.494Z,69.85
2022-11-28T23:05:27.122Z,70.93
2022-11-28T23:08:00.625Z,79.38
2022-11-28T23:10:37.347Z,61.75
2022-11-28T23:13:07.472Z,65.15
2022-11-28T23:15:41.743Z,58.78
2022-11-28T23:18:11.536Z,72.88
2022-11-28T23:20:44.285Z,59.15
2022-11-28T23:23:15.741Z,49.53
2022-11-28T23:25:43.336Z,56.92
2022-11-28T23:28:10.675Z,45.58
2022-11-28T23:30:41.269Z,52.53
2022-11-28T23:33:09.092Z,45.60
2022-11-28T23:35:36.288Z,49.50
2022-11-28T23:38:03.618Z,46.75
2022-11-28T23:40:30.962Z,40.72
2022-11-28T23:42:58.587Z,43.92
2022-11-28T23:45:25.880Z,58.13
2022-11-28T23:47:54.586Z,48.67
2022-11-28T23:50:33.968Z,49.95
2022-11-28T23:53:01.485Z,44.28
2022-11-28T23:55:32.002Z,67.22
2022-11-28T23:58:01.812Z,55.15
